createdAt,value
2019-05-20T00:00:35.505Z,14.43
2019-05-20T00:03:04.244Z,15.23
2019-05-20T00:05:33.429Z,13.38
2019-05-20T00:08:04.735Z,14.50
2019-05-20T00:10:33.554Z,12.50
2019-05-20T00:13:02.368Z,15.75
2019-05-20T00:15:31.232Z,16.35
2019-05-20T00:18:00.277Z,13.32
2019-05-20T00:20:29.121Z,13.95
2019-05-20T00:22:57.949Z,16.45
2019-05-20T00:25:26.825Z,16.35
2019-05-20T00:27:55.678Z,19.32
2019-05-20T00:30:24.515Z,16.40
2019-05-20T00:32:53.311Z,14.78
2019-05-20T00:35:22.137Z,15.28
2019-05-20T00:37:50.987Z,14.15
2019-05-20T00:40:19.836Z,13.18
2019-05-20T00:42:48.648Z,13.35
2019-05-20T00:45:18.009Z,14.53
2019-05-20T00:47:46.827Z,17.02
2019-05-20T00:50:16.123Z,15.48
2019-05-20T00:52:46.450Z,14.47
2019-05-20T00:55:27.468Z,18.65
2019-05-20T00:57:56.312Z,16.10
2019-05-20T01:00:31.778Z,14.95
2019-05-20T01:03:00.862Z,20.35
2019-05-20T01:05:30.071Z,13.95
2019-05-20T01:07:58.942Z,15.60
2019-05-20T01:10:27.779Z,21.52
2019-05-20T01:12:56.587Z,15.53
2019-05-20T01:15:25.928Z,18.32
2019-05-20T01:17:54.795Z,15.68
2019-05-20T01:20:23.541Z,25.65
2019-05-20T01:22:52.519Z,18.85
2019-05-20T01:25:21.408Z,16.70
2019-05-20T01:27:50.582Z,19.98
2019-05-20T01:30:20.051Z,15.75
2019-05-20T01:32:48.836Z,15.88
2019-05-20T01:35:17.562Z,19.57
2019-05-20T01:37:46.381Z,21.00
2019-05-20T01:40:16.353Z,15.88
2019-05-20T01:42:45.151Z,17.45
2019-05-20T01:45:15.113Z,16.37
2019-05-20T01:47:43.950Z,17.02
2019-05-20T01:50:13.750Z,19.77
2019-05-20T01:52:42.620Z,30.00
2019-05-20T01:55:11.931Z,22.10
2019-05-20T01:57:40.740Z,16.82
2019-05-20T02:00:13.422Z,19.82
2019-05-20T02:02:42.355Z,19.98
2019-05-20T02:05:11.440Z,18.45
2019-05-20T02:07:40.235Z,17.35
2019-05-20T02:10:09.716Z,16.85
2019-05-20T02:12:38.567Z,16.67
2019-05-20T02:15:15.985Z,24.00
2019-05-20T02:17:44.834Z,17.60
2019-05-20T02:20:15.230Z,18.37
2019-05-20T02:22:44.041Z,17.02
2019-05-20T02:25:12.879Z,16.73
2019-05-20T02:27:41.638Z,18.37
2019-05-20T02:30:11.877Z,16.95
2019-05-20T02:32:41.504Z,17.15
2019-05-20T02:35:10.510Z,23.83
2019-05-20T02:37:39.308Z,21.42
2019-05-20T02:40:09.379Z,15.78
2019-05-20T02:42:38.313Z,18.00
2019-05-20T02:45:09.320Z,18.12
2019-05-20T02:47:38.178Z,17.35
2019-05-20T02:50:08.081Z,20.00
2019-05-20T02:52:36.906Z,17.23
2019-05-20T02:55:07.363Z,19.67
2019-05-20T02:57:36.167Z,17.73
2019-05-20T03:00:07.706Z,15.50
2019-05-20T03:02:36.504Z,16.05
2019-05-20T03:05:06.775Z,18.80
2019-05-20T03:07:35.950Z,19.10
2019-05-20T03:10:05.967Z,17.40
2019-05-20T03:12:34.808Z,19.25
2019-05-20T03:15:04.775Z,19.98
2019-05-20T03:17:33.680Z,18.02
2019-05-20T03:20:02.552Z,19.27
2019-05-20T03:22:31.394Z,18.12
2019-05-20T03:25:00.210Z,19.30
2019-05-20T03:27:29.067Z,18.35
2019-05-20T03:29:58.070Z,24.92
2019-05-20T03:32:26.820Z,27.50
2019-05-20T03:34:59.921Z,23.20
2019-05-20T03:37:26.139Z,19.27
2019-05-20T03:39:55.311Z,19.15
2019-05-20T03:42:24.147Z,18.62
2019-05-20T03:44:52.893Z,18.95
2019-05-20T03:47:21.739Z,15.85
2019-05-20T03:49:50.571Z,22.27
2019-05-20T03:52:21.057Z,19.77
2019-05-20T03:54:50.174Z,17.80
2019-05-20T03:57:18.969Z,18.40
2019-05-20T03:59:47.744Z,16.82
2019-05-20T04:02:16.552Z,17.12
2019-05-20T04:05:00.611Z,21.40
2019-05-20T04:07:15.805Z,19.45
2019-05-20T04:09:44.600Z,19.27
2019-05-20T04:12:14.416Z,19.77
2019-05-20T04:14:43.335Z,18.15
2019-05-20T04:17:12.146Z,20.45
2019-05-20T04:19:40.975Z,19.85
2019-05-20T04:22:09.746Z,16.67
2019-05-20T04:24:39.474Z,20.92
2019-05-20T04:27:08.638Z,15.80
2019-05-20T04:29:38.434Z,15.58
2019-05-20T04:32:07.393Z,17.10
2019-05-20T04:34:37.242Z,15.88
2019-05-20T04:37:06.036Z,14.43
2019-05-20T04:39:34.843Z,14.53
2019-05-20T04:42:06.473Z,14.90
2019-05-20T04:44:34.266Z,14.13
2019-05-20T04:47:03.089Z,14.55
2019-05-20T04:49:32.205Z,14.13
2019-05-20T04:52:01.049Z,14.40
2019-05-20T04:54:29.852Z,13.65
2019-05-20T04:56:58.661Z,15.40
2019-05-20T04:59:27.855Z,14.05
2019-05-20T05:01:58.613Z,15.70
2019-05-20T05:04:27.161Z,15.90
2019-05-20T05:06:56.842Z,15.83
2019-05-20T05:09:25.981Z,16.75
2019-05-20T05:11:54.781Z,16.70
2019-05-20T05:14:25.357Z,18.62
2019-05-20T05:16:54.174Z,15.08
2019-05-20T05:19:25.562Z,16.48
2019-05-20T05:21:54.379Z,14.43
2019-05-20T05:24:23.200Z,15.75
2019-05-20T05:26:52.046Z,15.10
2019-05-20T05:29:20.874Z,14.28
2019-05-20T05:31:50.052Z,16.15
2019-05-20T05:34:18.885Z,16.02
2019-05-20T05:36:47.744Z,16.82
2019-05-20T05:39:16.863Z,16.27
2019-05-20T05:41:45.627Z,15.03
2019-05-20T05:44:14.443Z,16.65
2019-05-20T05:46:43.332Z,14.75
2019-05-20T05:49:13.097Z,17.12
2019-05-20T05:51:41.984Z,15.80
2019-05-20T05:54:11.092Z,15.13
2019-05-20T05:56:39.864Z,15.00
2019-05-20T05:59:08.681Z,13.98
2019-05-20T06:01:37.491Z,15.95
2019-05-20T06:04:06.339Z,15.30
2019-05-20T06:06:35.133Z,15.05
2019-05-20T06:09:05.458Z,15.70
2019-05-20T06:11:34.658Z,15.88
2019-05-20T06:14:03.564Z,16.10
2019-05-20T06:16:36.441Z,14.95
2019-05-20T06:19:02.956Z,14.47
2019-05-20T06:21:31.942Z,15.43
2019-05-20T06:24:01.378Z,15.10
2019-05-20T06:26:30.178Z,15.60
2019-05-20T06:29:02.735Z,13.60
2019-05-20T06:31:29.829Z,13.28
2019-05-20T06:33:58.639Z,14.95
2019-05-20T06:36:27.485Z,14.33
2019-05-20T06:39:12.757Z,13.78
2019-05-20T06:41:43.250Z,14.70
2019-05-20T06:44:12.694Z,16.15
2019-05-20T06:46:41.874Z,14.93
2019-05-20T06:49:10.701Z,15.15
2019-05-20T06:51:39.519Z,15.03
2019-05-20T06:54:08.351Z,15.28
2019-05-20T06:56:37.257Z,14.87
2019-05-20T06:59:06.350Z,14.30
2019-05-20T07:01:35.210Z,16.62
2019-05-20T07:04:04.253Z,16.30
2019-05-20T07:06:45.786Z,19.07
2019-05-20T07:09:05.126Z,14.83
2019-05-20T07:11:33.974Z,14.33
2019-05-20T07:14:02.985Z,10.93
2019-05-20T07:16:32.209Z,13.25
2019-05-20T07:19:01.396Z,17.73
2019-05-20T07:21:31.169Z,13.03
2019-05-20T07:24:00.308Z,11.75
2019-05-20T07:26:29.175Z,16.90
2019-05-20T07:28:58.299Z,12.78
2019-05-20T07:31:27.441Z,18.80
2019-05-20T07:33:56.268Z,15.98
2019-05-20T07:36:25.084Z,13.68
2019-05-20T07:38:54.587Z,12.80
2019-05-20T07:41:24.799Z,15.85
2019-05-20T07:43:53.687Z,16.20
2019-05-20T07:46:22.538Z,15.75
2019-05-20T07:48:51.909Z,14.45
2019-05-20T07:51:21.846Z,12.85
2019-05-20T07:53:51.565Z,15.95
2019-05-20T07:56:26.004Z,11.33
2019-05-20T07:58:57.674Z,16.15
2019-05-20T08:01:26.536Z,11.33
2019-05-20T08:03:55.373Z,11.28
2019-05-20T08:06:24.559Z,10.63
2019-05-20T08:08:53.548Z,11.05
2019-05-20T08:11:22.499Z,11.22
2019-05-20T08:13:52.335Z,12.55
2019-05-20T08:16:21.273Z,13.55
2019-05-20T08:18:50.225Z,16.60
2019-05-20T08:21:20.888Z,12.33
2019-05-20T08:23:50.370Z,11.43
2019-05-20T08:26:19.316Z,13.18
2019-05-20T08:28:48.173Z,15.08
2019-05-20T08:31:17.002Z,13.43
2019-05-20T08:33:45.842Z,12.55
2019-05-20T08:36:14.810Z,14.45
2019-05-20T08:38:47.373Z,13.80
2019-05-20T08:41:16.239Z,12.75
2019-05-20T08:43:45.095Z,16.30
2019-05-20T08:46:14.238Z,14.50
2019-05-20T08:48:43.036Z,12.95
2019-05-20T08:51:11.980Z,15.68
2019-05-20T08:53:40.798Z,11.57
2019-05-20T08:56:09.934Z,10.78
2019-05-20T08:58:38.737Z,11.00
2019-05-20T09:01:10.622Z,12.80
2019-05-20T09:03:38.129Z,19.73
2019-05-20T09:06:07.002Z,18.02
2019-05-20T09:08:35.796Z,22.55
2019-05-20T09:11:04.970Z,13.32
2019-05-20T09:13:33.948Z,13.00
2019-05-20T09:16:03.780Z,16.40
2019-05-20T09:18:32.737Z,19.90
2019-05-20T09:21:01.644Z,15.58
2019-05-20T09:23:30.858Z,15.65
2019-05-20T09:26:01.204Z,17.05
2019-05-20T09:28:29.965Z,13.35
2019-05-20T09:30:58.832Z,18.10
2019-05-20T09:33:28.013Z,15.60
2019-05-20T09:35:57.354Z,14.38
2019-05-20T09:38:26.116Z,19.20
2019-05-20T09:40:55.332Z,12.45
2019-05-20T09:43:24.133Z,14.10
2019-05-20T09:46:06.327Z,13.45
2019-05-20T09:48:25.277Z,12.95
2019-05-20T09:50:54.615Z,12.75
2019-05-20T09:53:23.983Z,12.13
2019-05-20T09:55:52.882Z,13.72
2019-05-20T09:58:21.796Z,13.05
2019-05-20T10:00:51.049Z,16.85
2019-05-20T10:03:19.863Z,11.70
2019-05-20T10:05:49.670Z,16.30
2019-05-20T10:08:35.876Z,14.95
2019-05-20T10:10:49.801Z,13.13
2019-05-20T10:13:18.628Z,15.68
2019-05-20T10:15:47.361Z,13.35
2019-05-20T10:18:16.209Z,12.70
2019-05-20T10:20:45.033Z,13.43
2019-05-20T10:23:15.887Z,13.03
2019-05-20T10:25:46.454Z,12.05
2019-05-20T10:28:15.603Z,10.98
2019-05-20T10:30:44.411Z,12.53
2019-05-20T10:33:14.022Z,13.70
2019-05-20T10:35:42.836Z,11.38
2019-05-20T10:38:11.616Z,10.93
2019-05-20T10:40:40.488Z,13.78
2019-05-20T10:43:09.661Z,12.20
2019-05-20T10:45:38.537Z,11.70
2019-05-20T10:48:09.027Z,11.93
2019-05-20T10:50:38.254Z,10.58
2019-05-20T10:53:07.066Z,12.78
2019-05-20T10:55:35.909Z,11.80
2019-05-20T10:58:04.951Z,12.28
2019-05-20T11:00:33.728Z,13.35
2019-05-20T11:03:02.822Z,11.85
2019-05-20T11:05:31.920Z,9.88
2019-05-20T11:08:00.733Z,11.03
2019-05-20T11:10:29.672Z,12.73
2019-05-20T11:12:58.467Z,14.68
2019-05-20T11:15:27.277Z,12.55
2019-05-20T11:17:56.118Z,15.13
2019-05-20T11:20:24.918Z,11.80
2019-05-20T11:22:53.749Z,11.85
2019-05-20T11:25:22.599Z,12.30
2019-05-20T11:27:51.396Z,10.60
2019-05-20T11:30:21.031Z,13.43
2019-05-20T11:32:50.216Z,10.93
2019-05-20T11:35:19.316Z,13.05
2019-05-20T11:37:48.201Z,13.13
2019-05-20T11:40:17.434Z,12.55
2019-05-20T11:42:46.290Z,10.75
2019-05-20T11:45:16.099Z,11.33
2019-05-20T11:47:45.295Z,16.65
2019-05-20T11:50:15.215Z,12.33
2019-05-20T11:52:44.204Z,13.62
2019-05-20T11:55:13.156Z,14.20
2019-05-20T11:57:43.895Z,14.15
2019-05-20T12:00:13.080Z,14.55
2019-05-20T12:02:41.890Z,14.13
2019-05-20T12:05:11.045Z,16.30
2019-05-20T12:07:39.875Z,14.58
2019-05-20T12:10:09.476Z,12.95
2019-05-20T12:12:38.330Z,12.65
2019-05-20T12:15:09.534Z,11.63
2019-05-20T12:17:38.494Z,11.83
2019-05-20T12:20:11.240Z,12.73
2019-05-20T12:22:39.949Z,10.35
2019-05-20T12:25:08.772Z,11.88
2019-05-20T12:27:37.609Z,10.70
2019-05-20T12:30:07.295Z,13.10
2019-05-20T12:32:36.496Z,11.20
2019-05-20T12:35:07.107Z,9.48
2019-05-20T12:37:35.947Z,10.55
2019-05-20T12:40:08.054Z,10.13
2019-05-20T12:42:37.443Z,11.73
2019-05-20T12:45:08.252Z,9.15
2019-05-20T12:47:37.088Z,8.68
2019-05-20T12:50:07.863Z,9.88
2019-05-20T12:52:39.258Z,9.65
2019-05-20T12:55:10.071Z,10.03
2019-05-20T12:57:38.985Z,11.97
2019-05-20T13:00:10.295Z,10.72
2019-05-20T13:02:39.502Z,9.63
2019-05-20T13:05:08.455Z,11.43
2019-05-20T13:07:37.303Z,10.68
2019-05-20T13:10:26.909Z,11.75
2019-05-20T13:12:41.317Z,9.60
2019-05-20T13:15:11.281Z,9.85
2019-05-20T13:17:44.357Z,10.98
2019-05-20T13:20:10.962Z,11.55
2019-05-20T13:22:39.814Z,10.63
2019-05-20T13:25:08.657Z,11.35
2019-05-20T13:27:37.458Z,11.28
2019-05-20T13:30:07.867Z,12.73
2019-05-20T13:32:36.706Z,10.25
2019-05-20T13:35:07.237Z,10.85
2019-05-20T13:37:36.185Z,10.48
2019-05-20T13:40:06.324Z,10.38
2019-05-20T13:42:36.348Z,10.88
2019-05-20T13:45:06.762Z,10.03
2019-05-20T13:47:35.622Z,9.18
2019-05-20T13:50:07.236Z,11.28
2019-05-20T13:52:36.041Z,14.03
2019-05-20T13:55:05.868Z,10.38
2019-05-20T13:57:34.659Z,11.28
2019-05-20T14:00:04.934Z,12.55
2019-05-20T14:02:33.845Z,14.35
2019-05-20T14:05:02.686Z,11.12
2019-05-20T14:07:31.475Z,12.18
2019-05-20T14:10:01.223Z,12.85
2019-05-20T14:12:30.019Z,11.18
2019-05-20T14:14:58.850Z,12.85
2019-05-20T14:17:27.730Z,13.38
2019-05-20T14:19:56.549Z,12.75
2019-05-20T14:22:25.459Z,11.38
2019-05-20T14:24:54.347Z,12.98
2019-05-20T14:27:23.203Z,11.55
2019-05-20T14:29:52.024Z,9.40
2019-05-20T14:32:20.960Z,10.53
2019-05-20T14:34:49.898Z,9.90
2019-05-20T14:37:18.655Z,12.68
2019-05-20T14:39:47.894Z,10.63
2019-05-20T14:42:16.797Z,10.58
2019-05-20T14:44:45.607Z,10.48
2019-05-20T14:47:14.404Z,11.18
2019-05-20T14:49:43.247Z,10.30
2019-05-20T14:52:12.077Z,9.18
2019-05-20T14:54:40.814Z,10.32
2019-05-20T14:57:10.023Z,11.43
2019-05-20T14:59:38.822Z,12.58
2019-05-20T15:02:07.623Z,10.90
2019-05-20T15:04:36.495Z,11.63
2019-05-20T15:07:05.564Z,12.23
2019-05-20T15:09:34.370Z,10.75
2019-05-20T15:12:03.290Z,10.72
2019-05-20T15:14:32.105Z,11.28
2019-05-20T15:17:01.248Z,12.10
2019-05-20T15:19:30.929Z,10.20
2019-05-20T15:22:00.101Z,10.98
2019-05-20T15:24:29.372Z,11.22
2019-05-20T15:26:58.378Z,10.53
2019-05-20T15:29:30.020Z,9.53
2019-05-20T15:31:59.198Z,8.40
2019-05-20T15:34:28.176Z,11.03
2019-05-20T15:36:57.029Z,9.73
2019-05-20T15:39:25.854Z,10.28
2019-05-20T15:41:54.676Z,9.70
2019-05-20T15:44:23.512Z,9.53
2019-05-20T15:46:52.505Z,9.63
2019-05-20T15:49:21.312Z,9.73
2019-05-20T15:51:50.236Z,10.80
2019-05-20T15:54:18.971Z,11.63
2019-05-20T15:56:47.813Z,9.78
2019-05-20T15:59:16.663Z,10.23
2019-05-20T16:01:46.467Z,10.48
2019-05-20T16:04:15.298Z,9.80
2019-05-20T16:06:44.103Z,10.15
2019-05-20T16:09:17.017Z,9.13
2019-05-20T16:11:43.421Z,8.40
2019-05-20T16:14:12.369Z,9.23
2019-05-20T16:16:41.163Z,8.90
2019-05-20T16:19:10.400Z,10.72
2019-05-20T16:21:39.169Z,10.03
2019-05-20T16:24:08.183Z,7.90
2019-05-20T16:26:37.046Z,8.00
2019-05-20T16:29:06.094Z,10.80
2019-05-20T16:31:34.911Z,10.72
2019-05-20T16:34:03.718Z,9.25
2019-05-20T16:36:32.651Z,9.13
2019-05-20T16:39:02.120Z,10.08
2019-05-20T16:41:30.930Z,10.30
2019-05-20T16:43:59.757Z,8.23
2019-05-20T16:46:28.538Z,10.18
2019-05-20T16:48:57.272Z,8.63
2019-05-20T16:51:26.066Z,7.83
2019-05-20T16:53:54.906Z,9.83
2019-05-20T16:56:25.270Z,10.20
2019-05-20T16:58:54.086Z,11.97
2019-05-20T17:01:22.941Z,12.80
2019-05-20T17:03:52.124Z,12.07
2019-05-20T17:06:20.924Z,12.23
2019-05-20T17:08:49.772Z,10.75
2019-05-20T17:11:18.585Z,12.55
2019-05-20T17:13:47.434Z,15.18
2019-05-20T17:16:35.496Z,12.53
2019-05-20T17:19:04.325Z,10.35
2019-05-20T17:21:33.098Z,11.55
2019-05-20T17:24:01.983Z,13.72
2019-05-20T17:26:30.896Z,11.53
2019-05-20T17:28:59.700Z,11.70
2019-05-20T17:31:30.785Z,12.10
2019-05-20T17:33:58.968Z,10.50
2019-05-20T17:36:27.790Z,13.62
2019-05-20T17:38:56.669Z,12.23
2019-05-20T17:41:25.529Z,11.78
2019-05-20T17:43:54.826Z,13.40
2019-05-20T17:46:24.046Z,11.60
2019-05-20T17:48:54.283Z,12.30
2019-05-20T17:51:23.046Z,14.70
2019-05-20T17:53:52.240Z,13.72
2019-05-20T17:56:24.411Z,11.48
2019-05-20T17:58:53.218Z,10.78
2019-05-20T18:01:22.064Z,12.45
2019-05-20T18:03:51.160Z,11.38
2019-05-20T18:12:35.834Z,11.95
2019-05-20T18:15:15.139Z,11.68
2019-05-20T18:17:52.987Z,10.88
2019-05-20T18:20:35.162Z,10.82
2019-05-20T18:23:17.737Z,12.70
2019-05-20T18:25:47.010Z,8.98
2019-05-20T18:28:15.800Z,12.05
2019-05-20T18:30:44.613Z,12.10
2019-05-20T18:33:13.424Z,11.50
2019-05-20T18:35:42.276Z,11.60
2019-05-20T18:38:11.104Z,13.00
2019-05-20T18:40:39.876Z,11.93
2019-05-20T18:43:08.619Z,9.18
2019-05-20T18:45:37.480Z,11.45
2019-05-20T18:48:06.323Z,11.95
2019-05-20T18:50:35.587Z,10.15
2019-05-20T18:53:04.479Z,11.63
2019-05-20T18:55:35.011Z,12.55
2019-05-20T18:58:04.053Z,14.20
2019-05-20T19:00:32.901Z,10.60
2019-05-20T19:03:01.747Z,12.00
2019-05-20T19:05:30.893Z,13.28
2019-05-20T19:07:59.990Z,11.08
2019-05-20T19:10:29.047Z,14.00
2019-05-20T19:12:57.889Z,12.28
2019-05-20T19:15:26.902Z,11.95
2019-05-20T19:17:56.194Z,12.70
2019-05-20T19:20:24.951Z,13.08
2019-05-20T19:22:53.840Z,9.63
2019-05-20T19:25:35.641Z,10.23
2019-05-20T19:27:53.314Z,14.63
2019-05-20T19:30:22.423Z,13.13
2019-05-20T19:32:51.249Z,13.83
2019-05-20T19:35:40.392Z,15.28
2019-05-20T19:38:09.834Z,12.13
2019-05-20T19:40:39.343Z,11.00
2019-05-20T19:43:08.199Z,10.93
2019-05-20T19:45:37.047Z,12.47
2019-05-20T19:48:05.994Z,13.40
2019-05-20T19:50:34.807Z,10.95
2019-05-20T19:53:03.960Z,12.33
2019-05-20T19:55:32.979Z,11.65
2019-05-20T19:58:02.425Z,13.93
2019-05-20T20:00:31.350Z,10.70
2019-05-20T20:03:00.512Z,13.60
2019-05-20T20:05:29.956Z,9.15
2019-05-20T20:07:58.940Z,10.10
2019-05-20T20:10:27.847Z,10.70
2019-05-20T20:12:56.673Z,10.48
2019-05-20T20:15:25.512Z,17.32
2019-05-20T20:17:54.328Z,12.93
2019-05-20T20:20:23.479Z,10.98
2019-05-20T20:22:52.292Z,14.70
2019-05-20T20:25:21.369Z,16.35
2019-05-20T20:27:50.382Z,13.08
2019-05-20T20:30:19.359Z,13.93
2019-05-20T20:32:48.346Z,13.48
2019-05-20T20:35:17.527Z,13.15
2019-05-20T20:37:46.377Z,17.10
2019-05-20T20:40:15.300Z,11.30
2019-05-20T20:42:44.099Z,12.33
2019-05-20T20:45:13.180Z,9.98
2019-05-20T20:47:42.535Z,9.78
2019-05-20T20:50:11.682Z,12.80
2019-05-20T20:52:41.463Z,12.23
2019-05-20T20:55:11.680Z,10.53
2019-05-20T20:57:40.405Z,11.80
2019-05-20T21:00:09.689Z,10.45
2019-05-20T21:02:52.232Z,14.00
2019-05-20T21:05:09.491Z,12.98
2019-05-20T21:07:38.246Z,13.65
2019-05-20T21:10:07.714Z,13.55
2019-05-20T21:12:36.531Z,13.38
2019-05-20T21:15:06.961Z,14.50
2019-05-20T21:17:36.117Z,14.13
2019-05-20T21:20:06.798Z,15.03
2019-05-20T21:22:35.657Z,15.80
2019-05-20T21:25:05.796Z,14.95
2019-05-20T21:27:34.650Z,11.88
2019-05-20T21:30:04.750Z,12.98
2019-05-20T21:32:33.596Z,13.00
2019-05-20T21:35:02.423Z,11.35
2019-05-20T21:37:31.219Z,16.23
2019-05-20T21:40:01.556Z,11.25
2019-05-20T21:42:30.461Z,11.60
2019-05-20T21:44:59.311Z,12.15
2019-05-20T21:47:28.185Z,20.68
2019-05-20T21:49:56.993Z,18.77
2019-05-20T21:52:27.054Z,13.08
2019-05-20T21:54:55.884Z,15.88
2019-05-20T21:57:25.598Z,22.20
2019-05-20T21:59:55.412Z,14.83
2019-05-20T22:02:26.752Z,18.25
2019-05-20T22:04:55.751Z,12.58
2019-05-20T22:07:24.997Z,14.47
2019-05-20T22:09:53.805Z,12.23
2019-05-20T22:12:22.610Z,10.65
2019-05-20T22:14:51.572Z,11.65
2019-05-20T22:17:21.077Z,14.70
2019-05-20T22:19:51.503Z,11.78
2019-05-20T22:22:33.815Z,10.72
2019-05-20T22:25:02.635Z,13.53
2019-05-20T22:27:31.426Z,11.75
2019-05-20T22:30:00.256Z,13.50
2019-05-20T22:32:29.901Z,12.23
2019-05-20T22:34:58.712Z,13.13
2019-05-20T22:37:27.518Z,6.75
2019-05-20T22:39:56.355Z,8.35
2019-05-20T22:42:33.258Z,9.05
2019-05-20T22:45:04.946Z,10.43
2019-05-20T22:47:33.799Z,9.63
2019-05-20T22:50:02.926Z,13.72
2019-05-20T22:52:31.727Z,8.85
2019-05-20T22:55:00.574Z,9.90
2019-05-20T22:57:30.278Z,7.85
2019-05-20T22:59:59.079Z,10.38
2019-05-20T23:02:27.924Z,6.60
2019-05-20T23:04:56.657Z,7.95
2019-05-20T23:07:25.470Z,11.63
2019-05-20T23:09:54.441Z,9.78
2019-05-20T23:12:23.292Z,9.45
2019-05-20T23:14:52.101Z,8.25
2019-05-20T23:17:20.932Z,10.28
2019-05-20T23:19:49.752Z,11.83
2019-05-20T23:22:18.698Z,12.45
2019-05-20T23:24:47.536Z,9.10
2019-05-20T23:27:16.354Z,9.65
2019-05-20T23:29:45.264Z,11.55
2019-05-20T23:32:14.232Z,11.53
2019-05-20T23:34:43.016Z,15.75
2019-05-20T23:37:11.857Z,11.15
2019-05-20T23:39:41.142Z,10.43
2019-05-20T23:42:09.906Z,9.73
2019-05-20T23:44:38.728Z,7.85
2019-05-20T23:47:07.565Z,9.15
2019-05-20T23:49:36.415Z,9.95
2019-05-20T23:52:05.233Z,10.50
2019-05-20T23:54:34.038Z,10.55
2019-05-20T23:57:02.873Z,7.97
2019-05-20T23:59:31.815Z,9.30
